Weather at Visoko Sport Airfield

Public forecast

Using degrees Celsius for public forecast. Weather courtesy of forecast.io.

Closest aviation weather report (METAR) to Visoko Sport Airfield

Closest report is Sarajevo International Airport, 15.7 nm (29.1 km) SE.

2024/05/24 08:00 (retrieved 20 minutes ago)

LQSA 240800Z VRB02KT 9999 SCT045 19/12 Q1019 NOSIG

Closest aviation forecast (TAF) to Visoko Sport Airfield

Closest forecast is Sarajevo International Airport, 15.7 nm (29.1 km) SE.

2024/05/24 06:06 (retrieved 2 hours ago)

TAF LQSA 240500Z 2406/2506 VRB02KT CAVOK TX25/2412Z TN10/2504Z PROB40 TEMPO 2410/2417 30012KT TSRA FEW035CB SCT050 PROB30 2503/2506 2500 BR BKN008